In Rescue
 
Open Full Screen Window  High Contrast Mode
Wind Gusting 00 knots
07
April 19, 2021 9:02 PM EDT
Weather Information
Wind Direction
  230 °
Wind Speed
  07 kt (8 mph)
Wind Gust
  00 kt (0 mph)
Altimeter
29.86 in
Visibility
10 SM
Temperature
15° C
59° F
Dewpoint
02° C
36° F
Humidity
42%
1hr Rain Fall
00.00 in.
24hr Rain Fall
00.00 in.
Sky Condition
Broken @ 10,000 ft
Scattered @ 8,500 ft
Scattered @ 7,500 ft
VFR

METAR K4I3 200102Z AUTO 23007KT 10SM SCT075 SCT085 BKN100 15/02 A2986 RMK AO2

FAA Disclaimer: The data displayed is for advisory purposes only and is not to be used for flight planning or operations.